sensor_id;sensor_type;location;lat;lon;timestamp;temperature;humidity
7572;DHT22;3827;49.928;8.548;2022-10-31T00:02:01;9.40;99.90
7572;DHT22;3827;49.928;8.548;2022-10-31T00:04:28;9.50;99.90
7572;DHT22;3827;49.928;8.548;2022-10-31T00:06:55;9.50;99.90
7572;DHT22;3827;49.928;8.548;2022-10-31T00:09:22;9.50;99.90
7572;DHT22;3827;49.928;8.548;2022-10-31T00:11:48;9.50;99.90
7572;DHT22;3827;49.928;8.548;2022-10-31T00:14:15;9.50;99.90
7572;DHT22;3827;49.928;8.548;2022-10-31T00:16:43;9.50;99.90
7572;DHT22;3827;49.928;8.548;2022-10-31T00:19:10;9.50;99.90
7572;DHT22;3827;49.928;8.548;2022-10-31T00:21:37;9.50;99.90
7572;DHT22;3827;49.928;8.548;2022-10-31T00:24:04;9.40;99.90
7572;DHT22;3827;49.928;8.548;2022-10-31T00:26:31;9.40;99.90
7572;DHT22;3827;49.928;8.548;2022-10-31T00:28:59;9.50;99.90
7572;DHT22;3827;49.928;8.548;2022-10-31T00:31:26;9.50;99.90
7572;DHT22;3827;49.928;8.548;2022-10-31T00:33:54;9.50;99.90
7572;DHT22;3827;49.928;8.548;2022-10-31T00:36:21;9.50;99.90
7572;DHT22;3827;49.928;8.548;2022-10-31T00:38:48;9.50;99.90
7572;DHT22;3827;49.928;8.548;2022-10-31T00:41:16;9.40;99.90
7572;DHT22;3827;49.928;8.548;2022-10-31T00:43:43;9.40;99.90
7572;DHT22;3827;49.928;8.548;2022-10-31T00:46:10;9.30;99.90
7572;DHT22;3827;49.928;8.548;2022-10-31T00:48:37;9.30;99.90
7572;DHT22;3827;49.928;8.548;2022-10-31T00:51:06;9.30;99.90
7572;DHT22;3827;49.928;8.548;2022-10-31T00:53:33;9.20;99.90
7572;DHT22;3827;49.928;8.548;2022-10-31T00:56:00;9.20;99.90
7572;DHT22;3827;49.928;8.548;2022-10-31T00:58:26;9.40;99.90
7572;DHT22;3827;49.928;8.548;2022-10-31T01:00:53;9.30;99.90
7572;DHT22;3827;49.928;8.548;2022-10-31T01:03:22;9.10;99.90
7572;DHT22;3827;49.928;8.548;2022-10-31T01:05:59;9.10;99.90
7572;DHT22;3827;49.928;8.548;2022-10-31T01:08:27;9.20;99.90
7572;DHT22;3827;49.928;8.548;2022-10-31T01:11:06;9.20;99.90
7572;DHT22;3827;49.928;8.548;2022-10-31T01:13:34;9.10;99.90
7572;DHT22;3827;49.928;8.548;2022-10-31T01:16:03;9.10;99.90
7572;DHT22;3827;49.928;8.548;2022-10-31T01:18:30;9.10;99.90
7572;DHT22;3827;49.928;8.548;2022-10-31T01:21:02;9.30;99.90
7572;DHT22;3827;49.928;8.548;2022-10-31T01:23:31;9.30;99.90
7572;DHT22;3827;49.928;8.548;2022-10-31T01:26:07;9.20;99.90
7572;DHT22;3827;49.928;8.548;2022-10-31T01:28:34;9.20;99.90
7572;DHT22;3827;49.928;8.548;2022-10-31T01:31:02;9.20;99.90
7572;DHT22;3827;49.928;8.548;2022-10-31T01:33:30;9.20;99.90
7572;DHT22;3827;49.928;8.548;2022-10-31T01:35:56;9.20;99.90
7572;DHT22;3827;49.928;8.548;2022-10-31T01:38:23;9.20;99.90
7572;DHT22;3827;49.928;8.548;2022-10-31T01:40:52;9.20;99.90
7572;DHT22;3827;49.928;8.548;2022-10-31T01:43:19;9.20;99.90
7572;DHT22;3827;49.928;8.548;2022-10-31T01:45:50;9.20;99.90
7572;DHT22;3827;49.928;8.548;2022-10-31T01:48:20;9.30;99.90
7572;DHT22;3827;49.928;8.548;2022-10-31T01:50:51;9.30;99.90
7572;DHT22;3827;49.928;8.548;2022-10-31T01:53:18;9.20;99.90
7572;DHT22;3827;49.928;8.548;2022-10-31T01:55:46;9.20;99.90
7572;DHT22;3827;49.928;8.548;2022-10-31T01:58:18;9.20;99.90
7572;DHT22;3827;49.928;8.548;2022-10-31T02:00:47;9.30;99.90
7572;DHT22;3827;49.928;8.548;2022-10-31T02:03:16;9.30;99.90
7572;DHT22;3827;49.928;8.548;2022-10-31T02:05:43;9.30;99.90
7572;DHT22;3827;49.928;8.548;2022-10-31T02:08:13;9.30;99.90
7572;DHT22;3827;49.928;8.548;2022-10-31T02:10:43;9.30;99.90
7572;DHT22;3827;49.928;8.548;2022-10-31T02:13:10;9.30;99.90
7572;DHT22;3827;49.928;8.548;2022-10-31T02:15:40;9.30;99.90
7572;DHT22;3827;49.928;8.548;2022-10-31T02:18:08;9.20;99.90
7572;DHT22;3827;49.928;8.548;2022-10-31T02:20:41;9.10;99.90
7572;DHT22;3827;49.928;8.548;2022-10-31T02:26:26;9.00;99.90
7572;DHT22;3827;49.928;8.548;2022-10-31T02:29:10;8.90;99.90
7572;DHT22;3827;49.928;8.548;2022-10-31T02:31:46;8.90;99.90
7572;DHT22;3827;49.928;8.548;2022-10-31T02:34:18;8.90;99.90
7572;DHT22;3827;49.928;8.548;2022-10-31T02:36:53;8.90;99.90
7572;DHT22;3827;49.928;8.548;2022-10-31T02:39:25;8.80;99.90
7572;DHT22;3827;49.928;8.548;2022-10-31T02:42:03;8.90;99.90
7572;DHT22;3827;49.928;8.548;2022-10-31T02:44:36;8.90;99.90
7572;DHT22;3827;49.928;8.548;2022-10-31T02:47:10;8.90;99.90
7572;DHT22;3827;49.928;8.548;2022-10-31T02:49:42;8.90;99.90
7572;DHT22;3827;49.928;8.548;2022-10-31T02:52:17;8.90;99.90
7572;DHT22;3827;49.928;8.548;2022-10-31T02:54:46;8.90;99.90
7572;DHT22;3827;49.928;8.548;2022-10-31T02:57:14;9.00;99.90
7572;DHT22;3827;49.928;8.548;2022-10-31T02:59:47;8.90;99.90
7572;DHT22;3827;49.928;8.548;2022-10-31T03:02:25;8.90;99.90
7572;DHT22;3827;49.928;8.548;2022-10-31T03:05:20;8.90;99.90
7572;DHT22;3827;49.928;8.548;2022-10-31T03:07:56;8.90;99.90
7572;DHT22;3827;49.928;8.548;2022-10-31T03:10:31;8.80;99.90
7572;DHT22;3827;49.928;8.548;2022-10-31T03:13:09;8.80;99.90
7572;DHT22;3827;49.928;8.548;2022-10-31T03:15:39;8.90;99.90
7572;DHT22;3827;49.928;8.548;2022-10-31T03:18:14;8.70;99.90
7572;DHT22;3827;49.928;8.548;2022-10-31T03:20:46;8.70;99.90
7572;DHT22;3827;49.928;8.548;2022-10-31T03:23:15;8.70;99.90
7572;DHT22;3827;49.928;8.548;2022-10-31T03:25:43;8.60;99.90
7572;DHT22;3827;49.928;8.548;2022-10-31T03:28:12;8.70;99.90
7572;DHT22;3827;49.928;8.548;2022-10-31T03:30:43;8.80;99.90
7572;DHT22;3827;49.928;8.548;2022-10-31T03:33:16;8.80;99.90
7572;DHT22;3827;49.928;8.548;2022-10-31T03:35:47;8.80;99.90
7572;DHT22;3827;49.928;8.548;2022-10-31T03:38:17;8.90;99.90
7572;DHT22;3827;49.928;8.548;2022-10-31T03:40:46;8.90;99.90
7572;DHT22;3827;49.928;8.548;2022-10-31T03:43:16;9.10;99.90
7572;DHT22;3827;49.928;8.548;2022-10-31T03:45:47;8.80;99.90
7572;DHT22;3827;49.928;8.548;2022-10-31T03:48:16;8.80;99.90
7572;DHT22;3827;49.928;8.548;2022-10-31T03:50:49;8.90;99.90
7572;DHT22;3827;49.928;8.548;2022-10-31T03:53:24;9.10;99.90
7572;DHT22;3827;49.928;8.548;2022-10-31T03:55:56;8.80;99.90
7572;DHT22;3827;49.928;8.548;2022-10-31T03:58:27;8.80;99.90
7572;DHT22;3827;49.928;8.548;2022-10-31T04:00:56;8.70;99.90
7572;DHT22;3827;49.928;8.548;2022-10-31T04:03:28;9.80;99.90
7572;DHT22;3827;49.928;8.548;2022-10-31T04:05:59;8.70;99.90
7572;DHT22;3827;49.928;8.548;2022-10-31T04:08:30;8.80;99.90
7572;DHT22;3827;49.928;8.548;2022-10-31T04:11:00;8.70;99.90
7572;DHT22;3827;49.928;8.548;2022-10-31T04:13:29;8.70;99.90
7572;DHT22;3827;49.928;8.548;2022-10-31T04:15:58;8.80;99.90
7572;DHT22;3827;49.928;8.548;2022-10-31T04:18:26;8.80;99.90
7572;DHT22;3827;49.928;8.548;2022-10-31T04:21:00;8.80;99.90
7572;DHT22;3827;49.928;8.548;2022-10-31T04:23:29;8.80;99.90
7572;DHT22;3827;49.928;8.548;2022-10-31T04:25:56;8.70;99.90
7572;DHT22;3827;49.928;8.548;2022-10-31T04:28:23;8.70;99.90
7572;DHT22;3827;49.928;8.548;2022-10-31T04:30:49;8.80;99.90
7572;DHT22;3827;49.928;8.548;2022-10-31T04:33:16;8.70;99.90
7572;DHT22;3827;49.928;8.548;2022-10-31T04:35:45;8.70;99.90
7572;DHT22;3827;49.928;8.548;2022-10-31T04:38:11;8.70;99.90
7572;DHT22;3827;49.928;8.548;2022-10-31T04:40:38;8.50;99.90
7572;DHT22;3827;49.928;8.548;2022-10-31T04:43:05;8.50;99.90
7572;DHT22;3827;49.928;8.548;2022-10-31T04:45:32;8.40;99.90
7572;DHT22;3827;49.928;8.548;2022-10-31T04:47:59;8.40;99.90
7572;DHT22;3827;49.928;8.548;2022-10-31T04:50:25;8.40;99.90
7572;DHT22;3827;49.928;8.548;2022-10-31T04:52:53;8.40;99.90
7572;DHT22;3827;49.928;8.548;2022-10-31T04:55:20;8.40;99.90
7572;DHT22;3827;49.928;8.548;2022-10-31T04:57:48;8.50;99.90
7572;DHT22;3827;49.928;8.548;2022-10-31T05:00:18;8.50;99.90
7572;DHT22;3827;49.928;8.548;2022-10-31T05:02:45;8.50;99.90
7572;DHT22;3827;49.928;8.548;2022-10-31T05:05:13;8.60;99.90
7572;DHT22;3827;49.928;8.548;2022-10-31T05:07:40;8.50;99.90
7572;DHT22;3827;49.928;8.548;2022-10-31T05:10:09;8.50;99.90
7572;DHT22;3827;49.928;8.548;2022-10-31T05:12:37;8.50;99.90
7572;DHT22;3827;49.928;8.548;2022-10-31T05:15:05;8.50;99.90
7572;DHT22;3827;49.928;8.548;2022-10-31T05:17:32;8.50;99.90
7572;DHT22;3827;49.928;8.548;2022-10-31T05:19:59;8.50;99.90
7572;DHT22;3827;49.928;8.548;2022-10-31T05:22:26;8.60;99.90
7572;DHT22;3827;49.928;8.548;2022-10-31T05:24:52;8.50;99.90
7572;DHT22;3827;49.928;8.548;2022-10-31T05:27:21;8.60;99.90
7572;DHT22;3827;49.928;8.548;2022-10-31T05:29:47;8.70;99.90
7572;DHT22;3827;49.928;8.548;2022-10-31T05:32:14;8.60;99.90
7572;DHT22;3827;49.928;8.548;2022-10-31T05:34:41;8.60;99.90
7572;DHT22;3827;49.928;8.548;2022-10-31T05:37:08;8.70;99.90
7572;DHT22;3827;49.928;8.548;2022-10-31T05:39:35;8.70;99.90
7572;DHT22;3827;49.928;8.548;2022-10-31T05:42:02;8.90;99.90
7572;DHT22;3827;49.928;8.548;2022-10-31T05:44:30;8.80;99.90
7572;DHT22;3827;49.928;8.548;2022-10-31T05:46:57;8.80;99.90
7572;DHT22;3827;49.928;8.548;2022-10-31T05:49:24;8.80;99.90
7572;DHT22;3827;49.928;8.548;2022-10-31T05:51:51;8.80;99.90
7572;DHT22;3827;49.928;8.548;2022-10-31T05:54:18;8.90;99.90
7572;DHT22;3827;49.928;8.548;2022-10-31T05:56:45;8.80;99.90
7572;DHT22;3827;49.928;8.548;2022-10-31T05:59:11;8.80;99.90
7572;DHT22;3827;49.928;8.548;2022-10-31T06:01:40;8.80;99.90
7572;DHT22;3827;49.928;8.548;2022-10-31T06:04:06;8.80;99.90
7572;DHT22;3827;49.928;8.548;2022-10-31T06:06:33;8.90;99.90
7572;DHT22;3827;49.928;8.548;2022-10-31T06:09:00;8.90;99.90
7572;DHT22;3827;49.928;8.548;2022-10-31T06:11:27;8.80;99.90
7572;DHT22;3827;49.928;8.548;2022-10-31T06:13:54;8.80;99.90
7572;DHT22;3827;49.928;8.548;2022-10-31T06:16:20;8.80;99.90
7572;DHT22;3827;49.928;8.548;2022-10-31T06:18:48;8.80;99.90
7572;DHT22;3827;49.928;8.548;2022-10-31T06:21:15;8.80;99.90
7572;DHT22;3827;49.928;8.548;2022-10-31T06:23:42;8.70;99.90
7572;DHT22;3827;49.928;8.548;2022-10-31T06:26:09;8.80;99.90
7572;DHT22;3827;49.928;8.548;2022-10-31T06:28:36;8.80;99.90
7572;DHT22;3827;49.928;8.548;2022-10-31T06:33:30;8.90;99.90
7572;DHT22;3827;49.928;8.548;2022-10-31T06:35:58;8.90;99.90
7572;DHT22;3827;49.928;8.548;2022-10-31T06:38:26;8.90;99.90
7572;DHT22;3827;49.928;8.548;2022-10-31T06:40:53;9.00;99.90
7572;DHT22;3827;49.928;8.548;2022-10-31T06:43:20;9.10;99.90
7572;DHT22;3827;49.928;8.548;2022-10-31T06:45:47;9.10;99.90
7572;DHT22;3827;49.928;8.548;2022-10-31T06:48:14;9.10;99.90
7572;DHT22;3827;49.928;8.548;2022-10-31T06:50:41;9.20;99.90
7572;DHT22;3827;49.928;8.548;2022-10-31T06:53:09;9.30;99.90
7572;DHT22;3827;49.928;8.548;2022-10-31T06:55:36;9.30;99.90
7572;DHT22;3827;49.928;8.548;2022-10-31T06:58:03;9.30;99.90
7572;DHT22;3827;49.928;8.548;2022-10-31T07:00:30;9.40;99.90
7572;DHT22;3827;49.928;8.548;2022-10-31T07:02:58;9.40;99.90
7572;DHT22;3827;49.928;8.548;2022-10-31T07:05:27;9.50;99.90
7572;DHT22;3827;49.928;8.548;2022-10-31T07:07:55;7.70;99.90
7572;DHT22;3827;49.928;8.548;2022-10-31T07:10:24;9.50;99.90
7572;DHT22;3827;49.928;8.548;2022-10-31T07:12:54;9.50;99.90
7572;DHT22;3827;49.928;8.548;2022-10-31T07:15:21;9.60;99.90
7572;DHT22;3827;49.928;8.548;2022-10-31T07:17:48;9.70;99.90
7572;DHT22;3827;49.928;8.548;2022-10-31T07:20:15;9.70;99.90
7572;DHT22;3827;49.928;8.548;2022-10-31T07:22:42;9.70;99.90
7572;DHT22;3827;49.928;8.548;2022-10-31T07:25:10;9.80;99.90
7572;DHT22;3827;49.928;8.548;2022-10-31T07:27:38;9.80;99.90
7572;DHT22;3827;49.928;8.548;2022-10-31T07:30:07;9.90;99.90
7572;DHT22;3827;49.928;8.548;2022-10-31T07:32:38;10.00;99.90
7572;DHT22;3827;49.928;8.548;2022-10-31T07:35:06;10.00;99.90
7572;DHT22;3827;49.928;8.548;2022-10-31T07:37:33;10.00;99.90
7572;DHT22;3827;49.928;8.548;2022-10-31T07:40:00;10.10;99.90
7572;DHT22;3827;49.928;8.548;2022-10-31T07:42:27;10.20;99.90
7572;DHT22;3827;49.928;8.548;2022-10-31T07:44:55;10.20;99.90
7572;DHT22;3827;49.928;8.548;2022-10-31T07:47:22;10.30;99.90
7572;DHT22;3827;49.928;8.548;2022-10-31T07:49:48;10.40;99.90
7572;DHT22;3827;49.928;8.548;2022-10-31T07:52:15;10.40;99.90
7572;DHT22;3827;49.928;8.548;2022-10-31T07:54:42;10.50;99.90
7572;DHT22;3827;49.928;8.548;2022-10-31T07:57:09;10.70;99.90
7572;DHT22;3827;49.928;8.548;2022-10-31T07:59:36;10.80;99.90
7572;DHT22;3827;49.928;8.548;2022-10-31T08:02:04;10.90;99.90
7572;DHT22;3827;49.928;8.548;2022-10-31T08:04:30;10.90;99.90
7572;DHT22;3827;49.928;8.548;2022-10-31T08:06:57;10.90;99.90
7572;DHT22;3827;49.928;8.548;2022-10-31T08:09:24;11.00;99.90
7572;DHT22;3827;49.928;8.548;2022-10-31T08:11:52;11.10;99.90
7572;DHT22;3827;49.928;8.548;2022-10-31T08:14:19;11.20;99.90
7572;DHT22;3827;49.928;8.548;2022-10-31T08:16:46;11.30;99.90
7572;DHT22;3827;49.928;8.548;2022-10-31T08:19:14;11.30;99.90
7572;DHT22;3827;49.928;8.548;2022-10-31T08:21:41;11.30;99.90
7572;DHT22;3827;49.928;8.548;2022-10-31T08:24:08;11.30;99.90
7572;DHT22;3827;49.928;8.548;2022-10-31T08:26:35;11.30;99.90
7572;DHT22;3827;49.928;8.548;2022-10-31T08:29:02;11.30;99.90
7572;DHT22;3827;49.928;8.548;2022-10-31T08:31:29;11.40;99.90
7572;DHT22;3827;49.928;8.548;2022-10-31T08:33:56;11.70;99.90
7572;DHT22;3827;49.928;8.548;2022-10-31T08:36:24;11.50;99.90
7572;DHT22;3827;49.928;8.548;2022-10-31T08:38:51;11.60;99.90
7572;DHT22;3827;49.928;8.548;2022-10-31T08:41:17;11.60;99.90
7572;DHT22;3827;49.928;8.548;2022-10-31T08:43:44;11.60;99.90
7572;DHT22;3827;49.928;8.548;2022-10-31T08:46:11;11.60;99.90
7572;DHT22;3827;49.928;8.548;2022-10-31T08:48:38;12.10;99.90
7572;DHT22;3827;49.928;8.548;2022-10-31T08:51:05;11.70;99.90
7572;DHT22;3827;49.928;8.548;2022-10-31T08:53:34;11.70;99.90
7572;DHT22;3827;49.928;8.548;2022-10-31T08:56:00;11.90;99.90
7572;DHT22;3827;49.928;8.548;2022-10-31T08:58:27;11.90;99.90
7572;DHT22;3827;49.928;8.548;2022-10-31T09:00:54;12.00;99.90
7572;DHT22;3827;49.928;8.548;2022-10-31T09:03:24;12.10;99.90
7572;DHT22;3827;49.928;8.548;2022-10-31T09:05:54;12.10;99.90
7572;DHT22;3827;49.928;8.548;2022-10-31T09:08:22;12.30;99.90
7572;DHT22;3827;49.928;8.548;2022-10-31T09:10:50;12.40;99.90
7572;DHT22;3827;49.928;8.548;2022-10-31T09:13:19;12.50;99.90
7572;DHT22;3827;49.928;8.548;2022-10-31T09:15:47;12.60;99.90
7572;DHT22;3827;49.928;8.548;2022-10-31T09:18:16;12.70;99.90
7572;DHT22;3827;49.928;8.548;2022-10-31T09:20:44;12.70;99.90
7572;DHT22;3827;49.928;8.548;2022-10-31T09:23:12;12.80;99.90
7572;DHT22;3827;49.928;8.548;2022-10-31T09:25:40;12.80;99.90
7572;DHT22;3827;49.928;8.548;2022-10-31T09:28:10;13.00;99.90
7572;DHT22;3827;49.928;8.548;2022-10-31T09:30:38;13.10;99.90
7572;DHT22;3827;49.928;8.548;2022-10-31T09:33:08;13.20;99.90
7572;DHT22;3827;49.928;8.548;2022-10-31T09:35:36;13.30;99.90
7572;DHT22;3827;49.928;8.548;2022-10-31T09:38:04;13.40;99.90
7572;DHT22;3827;49.928;8.548;2022-10-31T09:40:34;13.40;99.90
7572;DHT22;3827;49.928;8.548;2022-10-31T09:43:11;13.60;99.90
7572;DHT22;3827;49.928;8.548;2022-10-31T09:45:44;13.70;99.90
7572;DHT22;3827;49.928;8.548;2022-10-31T09:48:27;13.70;99.90
7572;DHT22;3827;49.928;8.548;2022-10-31T09:51:00;13.90;99.90
7572;DHT22;3827;49.928;8.548;2022-10-31T09:53:33;14.10;99.90
7572;DHT22;3827;49.928;8.548;2022-10-31T09:56:01;14.20;99.90
7572;DHT22;3827;49.928;8.548;2022-10-31T09:58:36;14.30;99.90
7572;DHT22;3827;49.928;8.548;2022-10-31T10:01:09;14.40;99.90
7572;DHT22;3827;49.928;8.548;2022-10-31T10:03:45;14.40;99.90
7572;DHT22;3827;49.928;8.548;2022-10-31T10:06:16;14.50;99.90
7572;DHT22;3827;49.928;8.548;2022-10-31T10:08:44;14.60;99.90
7572;DHT22;3827;49.928;8.548;2022-10-31T10:11:25;14.70;99.90
7572;DHT22;3827;49.928;8.548;2022-10-31T10:14:20;14.70;99.90
7572;DHT22;3827;49.928;8.548;2022-10-31T10:19:50;14.80;99.90
7572;DHT22;3827;49.928;8.548;2022-10-31T10:22:27;15.00;99.90
7572;DHT22;3827;49.928;8.548;2022-10-31T10:25:07;15.20;99.90
7572;DHT22;3827;49.928;8.548;2022-10-31T10:27:46;15.30;99.90
7572;DHT22;3827;49.928;8.548;2022-10-31T10:30:17;15.50;99.90
7572;DHT22;3827;49.928;8.548;2022-10-31T10:32:47;15.60;99.90
7572;DHT22;3827;49.928;8.548;2022-10-31T10:35:22;15.50;99.90
7572;DHT22;3827;49.928;8.548;2022-10-31T10:37:53;15.40;99.90
7572;DHT22;3827;49.928;8.548;2022-10-31T10:40:24;15.40;99.90
7572;DHT22;3827;49.928;8.548;2022-10-31T10:42:59;15.60;99.90
7572;DHT22;3827;49.928;8.548;2022-10-31T10:45:51;15.70;99.90
7572;DHT22;3827;49.928;8.548;2022-10-31T10:48:42;15.50;99.90
7572;DHT22;3827;49.928;8.548;2022-10-31T10:51:19;15.80;99.90
7572;DHT22;3827;49.928;8.548;2022-10-31T10:53:56;16.10;99.90
7572;DHT22;3827;49.928;8.548;2022-10-31T10:56:39;16.20;99.90
7572;DHT22;3827;49.928;8.548;2022-10-31T10:59:11;16.40;99.90
7572;DHT22;3827;49.928;8.548;2022-10-31T11:01:41;16.50;99.90
7572;DHT22;3827;49.928;8.548;2022-10-31T11:04:31;16.70;99.90
7572;DHT22;3827;49.928;8.548;2022-10-31T11:07:03;16.70;99.90
7572;DHT22;3827;49.928;8.548;2022-10-31T11:09:31;16.80;99.90
7572;DHT22;3827;49.928;8.548;2022-10-31T11:11:58;17.00;99.90
7572;DHT22;3827;49.928;8.548;2022-10-31T11:14:27;17.00;99.90
7572;DHT22;3827;49.928;8.548;2022-10-31T11:17:08;17.00;99.90
7572;DHT22;3827;49.928;8.548;2022-10-31T11:19:36;17.10;99.90
7572;DHT22;3827;49.928;8.548;2022-10-31T11:22:07;17.10;99.90
7572;DHT22;3827;49.928;8.548;2022-10-31T11:24:39;17.20;99.90
7572;DHT22;3827;49.928;8.548;2022-10-31T11:27:14;17.40;99.90
7572;DHT22;3827;49.928;8.548;2022-10-31T11:29:41;17.70;99.90
7572;DHT22;3827;49.928;8.548;2022-10-31T11:32:18;17.80;99.90
7572;DHT22;3827;49.928;8.548;2022-10-31T11:34:47;17.90;99.90
7572;DHT22;3827;49.928;8.548;2022-10-31T11:37:17;18.40;99.90
7572;DHT22;3827;49.928;8.548;2022-10-31T11:39:49;18.70;99.90
7572;DHT22;3827;49.928;8.548;2022-10-31T11:42:20;18.90;99.90
7572;DHT22;3827;49.928;8.548;2022-10-31T11:44:48;19.10;99.90
7572;DHT22;3827;49.928;8.548;2022-10-31T11:47:20;19.00;99.90
7572;DHT22;3827;49.928;8.548;2022-10-31T11:49:49;19.00;99.90
7572;DHT22;3827;49.928;8.548;2022-10-31T11:52:19;19.30;99.90
7572;DHT22;3827;49.928;8.548;2022-10-31T11:54:49;19.50;99.90
7572;DHT22;3827;49.928;8.548;2022-10-31T11:57:25;19.50;99.90
7572;DHT22;3827;49.928;8.548;2022-10-31T11:59:53;19.50;99.90
7572;DHT22;3827;49.928;8.548;2022-10-31T12:02:23;19.70;99.90
7572;DHT22;3827;49.928;8.548;2022-10-31T12:04:55;19.50;99.90
7572;DHT22;3827;49.928;8.548;2022-10-31T12:07:24;19.60;99.90
7572;DHT22;3827;49.928;8.548;2022-10-31T12:09:51;19.70;99.90
7572;DHT22;3827;49.928;8.548;2022-10-31T12:12:44;19.40;99.90
7572;DHT22;3827;49.928;8.548;2022-10-31T12:15:29;19.20;99.90
7572;DHT22;3827;49.928;8.548;2022-10-31T12:18:21;19.10;99.90
7572;DHT22;3827;49.928;8.548;2022-10-31T12:20:58;19.20;99.90
7572;DHT22;3827;49.928;8.548;2022-10-31T12:23:33;19.20;99.90
7572;DHT22;3827;49.928;8.548;2022-10-31T12:26:09;18.70;99.90
7572;DHT22;3827;49.928;8.548;2022-10-31T12:28:54;18.60;99.90
7572;DHT22;3827;49.928;8.548;2022-10-31T12:31:42;18.40;99.90
7572;DHT22;3827;49.928;8.548;2022-10-31T12:37:11;18.60;99.90
7572;DHT22;3827;49.928;8.548;2022-10-31T12:39:50;18.90;99.90
7572;DHT22;3827;49.928;8.548;2022-10-31T12:42:32;19.30;99.90
7572;DHT22;3827;49.928;8.548;2022-10-31T12:45:30;19.10;99.90
7572;DHT22;3827;49.928;8.548;2022-10-31T12:48:20;19.10;99.90
7572;DHT22;3827;49.928;8.548;2022-10-31T12:50:57;19.10;99.90
7572;DHT22;3827;49.928;8.548;2022-10-31T12:53:38;19.30;99.90
7572;DHT22;3827;49.928;8.548;2022-10-31T12:56:21;19.50;99.90
7572;DHT22;3827;49.928;8.548;2022-10-31T12:58:56;19.50;99.90
7572;DHT22;3827;49.928;8.548;2022-10-31T13:01:31;19.50;99.90
7572;DHT22;3827;49.928;8.548;2022-10-31T13:04:03;19.60;99.90
7572;DHT22;3827;49.928;8.548;2022-10-31T13:06:36;19.50;99.90
7572;DHT22;3827;49.928;8.548;2022-10-31T13:09:08;19.50;99.90
7572;DHT22;3827;49.928;8.548;2022-10-31T13:11:39;19.40;99.90
7572;DHT22;3827;49.928;8.548;2022-10-31T13:14:11;19.30;99.90
7572;DHT22;3827;49.928;8.548;2022-10-31T13:16:42;19.20;99.90
7572;DHT22;3827;49.928;8.548;2022-10-31T13:19:14;19.20;99.90
7572;DHT22;3827;49.928;8.548;2022-10-31T13:21:52;19.10;99.90
7572;DHT22;3827;49.928;8.548;2022-10-31T13:24:25;19.30;99.90
7572;DHT22;3827;49.928;8.548;2022-10-31T13:26:56;19.30;99.90
7572;DHT22;3827;49.928;8.548;2022-10-31T13:29:28;19.30;99.90
7572;DHT22;3827;49.928;8.548;2022-10-31T13:31:57;19.40;99.90
7572;DHT22;3827;49.928;8.548;2022-10-31T13:34:27;19.30;99.90
7572;DHT22;3827;49.928;8.548;2022-10-31T13:37:02;19.30;99.90
7572;DHT22;3827;49.928;8.548;2022-10-31T13:39:40;19.30;99.90
7572;DHT22;3827;49.928;8.548;2022-10-31T13:42:14;19.30;99.90
7572;DHT22;3827;49.928;8.548;2022-10-31T13:44:42;19.30;99.90
7572;DHT22;3827;49.928;8.548;2022-10-31T13:47:22;19.20;99.90
7572;DHT22;3827;49.928;8.548;2022-10-31T13:49:50;19.20;99.90
7572;DHT22;3827;49.928;8.548;2022-10-31T13:52:24;19.10;99.90
7572;DHT22;3827;49.928;8.548;2022-10-31T13:54:53;19.00;99.90
7572;DHT22;3827;49.928;8.548;2022-10-31T13:57:31;18.90;99.90
7572;DHT22;3827;49.928;8.548;2022-10-31T14:00:03;18.70;99.90
7572;DHT22;3827;49.928;8.548;2022-10-31T14:02:33;18.50;99.90
7572;DHT22;3827;49.928;8.548;2022-10-31T14:05:03;18.40;99.90
7572;DHT22;3827;49.928;8.548;2022-10-31T14:07:33;18.40;99.90
7572;DHT22;3827;49.928;8.548;2022-10-31T14:10:02;18.30;99.90
7572;DHT22;3827;49.928;8.548;2022-10-31T14:12:34;18.30;99.90
7572;DHT22;3827;49.928;8.548;2022-10-31T14:15:12;18.20;99.90
7572;DHT22;3827;49.928;8.548;2022-10-31T14:17:46;18.10;99.90
7572;DHT22;3827;49.928;8.548;2022-10-31T14:20:33;18.10;99.90
7572;DHT22;3827;49.928;8.548;2022-10-31T14:23:12;18.20;99.90
7572;DHT22;3827;49.928;8.548;2022-10-31T14:25:39;18.20;99.90
7572;DHT22;3827;49.928;8.548;2022-10-31T14:28:20;18.20;99.90
7572;DHT22;3827;49.928;8.548;2022-10-31T14:30:57;18.30;99.90
7572;DHT22;3827;49.928;8.548;2022-10-31T14:33:26;18.40;99.90
7572;DHT22;3827;49.928;8.548;2022-10-31T14:35:56;18.60;99.90
7572;DHT22;3827;49.928;8.548;2022-10-31T14:38:41;18.60;99.90
7572;DHT22;3827;49.928;8.548;2022-10-31T14:41:25;18.70;99.90
7572;DHT22;3827;49.928;8.548;2022-10-31T14:44:27;18.90;99.90
7572;DHT22;3827;49.928;8.548;2022-10-31T14:47:05;18.90;99.90
7572;DHT22;3827;49.928;8.548;2022-10-31T14:49:44;19.00;99.90
7572;DHT22;3827;49.928;8.548;2022-10-31T14:52:15;18.90;99.90
7572;DHT22;3827;49.928;8.548;2022-10-31T14:54:48;18.80;99.90
7572;DHT22;3827;49.928;8.548;2022-10-31T14:57:19;18.70;99.90
7572;DHT22;3827;49.928;8.548;2022-10-31T14:59:50;18.30;99.90
7572;DHT22;3827;49.928;8.548;2022-10-31T15:02:20;18.10;99.90
7572;DHT22;3827;49.928;8.548;2022-10-31T15:04:48;17.90;99.90
7572;DHT22;3827;49.928;8.548;2022-10-31T15:07:19;17.70;99.90
7572;DHT22;3827;49.928;8.548;2022-10-31T15:09:56;17.50;99.90
7572;DHT22;3827;49.928;8.548;2022-10-31T15:12:25;17.20;99.90
7572;DHT22;3827;49.928;8.548;2022-10-31T15:14:53;17.00;99.90
7572;DHT22;3827;49.928;8.548;2022-10-31T15:17:21;16.90;99.90
7572;DHT22;3827;49.928;8.548;2022-10-31T15:19:48;16.80;99.90
7572;DHT22;3827;49.928;8.548;2022-10-31T15:22:17;16.60;99.90
7572;DHT22;3827;49.928;8.548;2022-10-31T15:24:45;16.50;99.90
7572;DHT22;3827;49.928;8.548;2022-10-31T15:27:15;16.70;99.90
7572;DHT22;3827;49.928;8.548;2022-10-31T15:29:49;16.50;99.90
7572;DHT22;3827;49.928;8.548;2022-10-31T15:32:19;16.50;99.90
7572;DHT22;3827;49.928;8.548;2022-10-31T15:34:48;16.40;99.90
7572;DHT22;3827;49.928;8.548;2022-10-31T15:37:17;16.30;99.90
7572;DHT22;3827;49.928;8.548;2022-10-31T15:39:46;16.20;99.90
7572;DHT22;3827;49.928;8.548;2022-10-31T15:42:20;16.20;99.90
7572;DHT22;3827;49.928;8.548;2022-10-31T15:44:51;16.10;99.90
7572;DHT22;3827;49.928;8.548;2022-10-31T15:47:20;16.10;99.90
7572;DHT22;3827;49.928;8.548;2022-10-31T15:49:51;16.00;99.90
7572;DHT22;3827;49.928;8.548;2022-10-31T15:52:28;15.90;99.90
7572;DHT22;3827;49.928;8.548;2022-10-31T15:54:58;16.00;99.90
7572;DHT22;3827;49.928;8.548;2022-10-31T15:57:28;16.00;99.90
7572;DHT22;3827;49.928;8.548;2022-10-31T15:59:55;16.00;99.90
7572;DHT22;3827;49.928;8.548;2022-10-31T16:02:24;16.00;99.90
7572;DHT22;3827;49.928;8.548;2022-10-31T16:04:54;16.00;99.90
7572;DHT22;3827;49.928;8.548;2022-10-31T16:07:22;15.90;99.90
7572;DHT22;3827;49.928;8.548;2022-10-31T16:09:54;15.90;99.90
7572;DHT22;3827;49.928;8.548;2022-10-31T16:12:22;15.80;99.90
7572;DHT22;3827;49.928;8.548;2022-10-31T16:14:52;15.80;99.90
7572;DHT22;3827;49.928;8.548;2022-10-31T16:17:21;15.70;99.90
7572;DHT22;3827;49.928;8.548;2022-10-31T16:19:52;15.60;99.90
7572;DHT22;3827;49.928;8.548;2022-10-31T16:22:22;15.60;99.90
7572;DHT22;3827;49.928;8.548;2022-10-31T16:24:53;15.60;99.90
7572;DHT22;3827;49.928;8.548;2022-10-31T16:27:22;15.60;99.90
7572;DHT22;3827;49.928;8.548;2022-10-31T16:29:56;15.60;99.90
7572;DHT22;3827;49.928;8.548;2022-10-31T16:32:25;15.50;99.90
7572;DHT22;3827;49.928;8.548;2022-10-31T16:35:18;15.50;99.90
7572;DHT22;3827;49.928;8.548;2022-10-31T16:37:45;15.50;99.90
7572;DHT22;3827;49.928;8.548;2022-10-31T16:40:13;15.40;99.90
7572;DHT22;3827;49.928;8.548;2022-10-31T16:42:40;15.40;99.90
7572;DHT22;3827;49.928;8.548;2022-10-31T16:45:15;15.30;99.90